Time;durP1;ratioP1;P1;durP2;ratioP2;P2;SDS_P1;SDS_P2;PMS_P1;PMS_P2;Temp;Humidity;BMP_temperature;BMP_pressure;BME280_temperature;BME280_humidity;BME280_pressure;Samples;Min_cycle;Max_cycle;Signal;HPM_P1;HPM_P2
2022/12/25 00:00:26;;;;;;;;;;;;;;;;;;5054963;28;7282;-75
2022/12/25 00:02:51;;;;;;;;;;;;;;;;;;5054737;28;7455;-75
2022/12/25 00:05:19;;;;;;;;;;;;;;;;;;5054581;28;8181;-75
2022/12/25 00:07:44;;;;;;;;;;;;;;;;;;5054904;28;7455;-75
2022/12/25 00:10:12;;;;;;;;;;;;;;;;;;5037740;28;8436;-75
2022/12/25 00:12:37;;;;;;;;;;;;;;;;;;5054866;28;7219;-75
2022/12/25 00:15:04;;;;;;;;;;;;;;;;;;5055103;28;7064;-75
2022/12/25 00:17:29;;;;;;;;;;;;;;;;;;5054648;28;6954;-75
2022/12/25 00:19:55;;;;;;;;;;;;;;;;;;5054580;28;7021;-75
2022/12/25 00:22:46;;;;;;;;;;;;;;;;;;5054526;28;6946;-75
2022/12/25 00:25:12;;;;;;;;;;;;;;;;;;5054815;28;7400;-75
2022/12/25 00:30:40;;;;;;;;;;;;;;;;;;5054199;28;7040;-75
2022/12/25 00:33:07;;;;;;;;;;;;;;;;;;5054613;28;7428;-75
2022/12/25 00:35:33;;;;;;;;;;;;;;;;;;5054575;28;7330;-75
2022/12/25 00:38:16;;;;;;;;;;;;;;;;;;5054228;28;7033;-75
2022/12/25 00:40:42;;;;;;;;;;;;;;;;;;5054404;28;7234;-74
2022/12/25 00:43:09;;;;;;;;;;;;;;;;;;5054392;28;8379;-75
2022/12/25 00:48:37;;;;;;;;;;;;;;;;;;5097826;22;6720;-74
2022/12/25 00:51:05;;;;;;;;;;;;;;;;;;5043106;28;8428;-74
2022/12/25 00:56:33;;;;;;;;;;;;;;;;;;4976080;28;6926;-74
2022/12/25 00:59:06;;;;;;;;;;;;;;;;;;4976073;28;7964;-74
2022/12/25 01:01:33;;;;;;;;;;;;;;;;;;4976370;28;7260;-74
2022/12/25 01:04:12;;;;;;;;;;;;;;;;;;4975969;28;7252;-74
2022/12/25 01:06:39;;;;;;;;;;;;;;;;;;4976073;28;7164;-74
2022/12/25 01:11:53;;;;;;;;;;;;;;;;;;4975730;28;6937;-74
2022/12/25 01:14:19;;;;;;;;;;;;;;;;;;4977289;28;7136;-75
2022/12/25 01:16:44;;;;;;;;;;;;;;;;;;4975723;28;6815;-75
2022/12/25 01:19:10;;;;;;;;;;;;;;;;;;4975853;28;7166;-75
2022/12/25 01:21:36;;;;;;;;;;;;;;;;;;4975686;28;6954;-75
2022/12/25 01:24:01;;;;;;;;;;;;;;;;;;4975279;28;7067;-75
2022/12/25 01:26:34;;;;;;;;;;;;;;;;;;5042786;28;8498;-75
2022/12/25 01:29:01;;;;;;;;;;;;;;;;;;4975774;28;7026;-75
2022/12/25 01:34:25;;;;;;;;;;;;;;;;;;4976213;28;7123;-75
2022/12/25 01:36:51;;;;;;;;;;;;;;;;;;4975910;28;7180;-73
2022/12/25 01:45:33;;;;;;;;;;;;;;;;;;4975689;28;7002;-73
2022/12/25 01:48:08;;;;;;;;;;;;;;;;;;4975458;28;6918;-73
2022/12/25 01:50:36;;;;;;;;;;;;;;;;;;4975457;28;7005;-73
2022/12/25 01:53:16;;;;;;;;;;;;;;;;;;4976365;28;7382;-73
2022/12/25 01:55:46;;;;;;;;;;;;;;;;;;4974892;28;6944;-73
2022/12/25 01:58:12;;;;;;;;;;;;;;;;;;4975128;28;7239;-73
2022/12/25 02:00:54;;;;;;;;;;;;;;;;;;4975370;28;7422;-73
2022/12/25 02:03:20;;;;;;;;;;;;;;;;;;5042544;28;8661;-73
2022/12/25 02:05:47;;;;;;;;;;;;;;;;;;4975322;28;7209;-73
2022/12/25 02:08:15;;;;;;;;;;;;;;;;;;4975268;28;6973;-73
2022/12/25 02:10:43;;;;;;;;;;;;;;;;;;5064494;23;7159;-74
2022/12/25 02:13:12;;;;;;;;;;;;;;;;;;5017796;22;8478;-74
2022/12/25 02:15:58;;;;;;;;;;;;;;;;;;4899620;29;8659;-74
2022/12/25 02:18:45;;;;;;;;;;;;;;;;;;4913420;29;7067;-74
2022/12/25 02:24:14;;;;;;;;;;;;;;;;;;4917359;29;7026;-74
2022/12/25 02:26:48;;;;;;;;;;;;;;;;;;4917791;29;6943;-74
2022/12/25 02:29:16;;;;;;;;;;;;;;;;;;4917735;28;7299;-74
2022/12/25 02:34:48;;;;;;;;;;;;;;;;;;4917331;29;6678;-74
2022/12/25 02:37:19;;;;;;;;;;;;;;;;;;4917286;28;7529;-74
2022/12/25 03:18:06;;;;;;;;;;;;;;;;;;4917113;29;6800;-74
2022/12/25 03:31:10;;;;;;;;;;;;;;;;;;4916796;29;6956;-76
2022/12/25 03:35:27;;;;;;;;;;;;;;;;;;4916193;29;6920;-76
2022/12/25 04:40:39;;;;;;;;;;;;;;;;;;4915666;29;6968;-76
2022/12/25 04:43:05;;;;;;;;;;;;;;;;;;4915561;29;7357;-76
2022/12/25 04:48:31;;;;;;;;;;;;;;;;;;4915620;28;6986;-76
2022/12/25 04:51:16;;;;;;;;;;;;;;;;;;4915400;29;7253;-76
2022/12/25 04:53:42;;;;;;;;;;;;;;;;;;4915261;29;7277;-76
2022/12/25 04:56:17;;;;;;;;;;;;;;;;;;4915278;29;7110;-76
2022/12/25 04:58:43;;;;;;;;;;;;;;;;;;4915457;29;7287;-76
2022/12/25 05:01:10;;;;;;;;;;;;;;;;;;4915310;29;7449;-76
2022/12/25 05:03:36;;;;;;;;;;;;;;;;;;5012722;22;7200;-75
2022/12/25 05:06:04;;;;;;;;;;;;;;;;;;5064071;28;6926;-75
2022/12/25 05:08:32;;;;;;;;;;;;;;;;;;5062538;28;7220;-74
2022/12/25 05:10:58;;;;;;;;;;;;;;;;;;5043470;28;7109;-74
2022/12/25 05:13:24;;;;;;;;;;;;;;;;;;5062863;28;6920;-74
2022/12/25 05:15:57;;;;;;;;;;;;;;;;;;5065559;28;7179;-74
2022/12/25 05:18:23;;;;;;;;;;;;;;;;;;5074207;28;7101;-74
2022/12/25 05:21:00;;;;;;;;;;;;;;;;;;5074056;28;7100;-74
2022/12/25 05:23:25;;;;;;;;;;;;;;;;;;5056125;28;7235;-74
2022/12/25 05:25:51;;;;;;;;;;;;;;;;;;5054146;28;7161;-74
2022/12/25 05:28:24;;;;;;;;;;;;;;;;;;5054232;28;7166;-74
2022/12/25 05:30:50;;;;;;;;;;;;;;;;;;5054008;28;7215;-74
2022/12/25 05:33:15;;;;;;;;;;;;;;;;;;5058058;28;7270;-74
2022/12/25 05:35:41;;;;;;;;;;;;;;;;;;5057583;28;7047;-75
2022/12/25 05:41:09;;;;;;;;;;;;;;;;;;5068023;28;7067;-76
2022/12/25 05:46:37;;;;;;;;;;;;;;;;;;5066628;28;6807;-76
2022/12/25 05:49:08;;;;;;;;;;;;;;;;;;5066583;28;7132;-76
2022/12/25 05:51:34;;;;;;;;;;;;;;;;;;5059971;28;7060;-76
2022/12/25 05:54:13;;;;;;;;;;;;;;;;;;5067996;28;7201;-76
2022/12/25 05:56:38;;;;;;;;;;;;;;;;;;5066571;28;7075;-76
2022/12/25 06:01:59;;;;;;;;;;;;;;;;;;5066508;28;6861;-76
2022/12/25 06:04:25;;;;;;;;;;;;;;;;;;5048766;28;7215;-77
2022/12/25 06:06:52;;;;;;;;;;;;;;;;;;5065180;28;7237;-77
2022/12/25 06:09:18;;;;;;;;;;;;;;;;;;5050398;28;7449;-74
2022/12/25 06:11:44;;;;;;;;;;;;;;;;;;5051525;28;6857;-74
2022/12/25 06:14:10;;;;;;;;;;;;;;;;;;5056892;28;7578;-72
2022/12/25 06:16:36;;;;;;;;;;;;;;;;;;5056949;28;6951;-69
2022/12/25 06:19:01;;;;;;;;;;;;;;;;;;5057424;28;7351;-72
2022/12/25 06:21:27;;;;;;;;;;;;;;;;;;5056390;28;7171;-72
2022/12/25 06:24:26;;;;;;;;;;;;;;;;;;5056664;28;7179;-73
2022/12/25 06:26:52;;;;;;;;;;;;;;;;;;5055768;28;7918;-73
2022/12/25 06:29:34;;;;;;;;;;;;;;;;;;5037464;28;7304;-72
2022/12/25 06:32:00;;;;;;;;;;;;;;;;;;5036224;28;7064;-73
2022/12/25 06:37:19;;;;;;;;;;;;;;;;;;5036628;28;6983;-74
2022/12/25 06:39:46;;;;;;;;;;;;;;;;;;5036569;28;7368;-74
2022/12/25 06:42:11;;;;;;;;;;;;;;;;;;5035756;28;6987;-74
2022/12/25 06:44:37;;;;;;;;;;;;;;;;;;5036324;28;7171;-74
2022/12/25 06:50:05;;;;;;;;;;;;;;;;;;5036165;28;6704;-74
2022/12/25 06:52:31;;;;;;;;;;;;;;;;;;5036135;28;7181;-74
2022/12/25 06:54:57;;;;;;;;;;;;;;;;;;5036447;28;7412;-74
2022/12/25 06:57:22;;;;;;;;;;;;;;;;;;5036035;28;8830;-74
2022/12/25 06:59:48;;;;;;;;;;;;;;;;;;5036242;28;7167;-73
2022/12/25 07:02:17;;;;;;;;;;;;;;;;;;5036025;28;7207;-74
2022/12/25 07:04:44;;;;;;;;;;;;;;;;;;5035815;28;7103;-74
2022/12/25 07:07:11;;;;;;;;;;;;;;;;;;5036063;28;7205;-74
2022/12/25 07:09:41;;;;;;;;;;;;;;;;;;5035677;28;7318;-74
2022/12/25 07:12:27;;;;;;;;;;;;;;;;;;5036069;28;7279;-74
2022/12/25 07:14:54;;;;;;;;;;;;;;;;;;5036102;28;7164;-74
2022/12/25 07:17:20;;;;;;;;;;;;;;;;;;5035628;28;7023;-74
2022/12/25 07:19:46;;;;;;;;;;;;;;;;;;5035926;28;7152;-74
2022/12/25 07:22:12;;;;;;;;;;;;;;;;;;5035218;28;7464;-74
2022/12/25 07:24:44;;;;;;;;;;;;;;;;;;5044117;28;7940;-74
2022/12/25 07:27:10;;;;;;;;;;;;;;;;;;5035736;28;6955;-76
2022/12/25 07:29:58;;;;;;;;;;;;;;;;;;5035517;28;7175;-77
2022/12/25 07:32:23;;;;;;;;;;;;;;;;;;5035379;28;6986;-74
2022/12/25 07:34:55;;;;;;;;;;;;;;;;;;5035590;28;7129;-74
2022/12/25 07:37:20;;;;;;;;;;;;;;;;;;5035355;28;7458;-74
2022/12/25 07:40:04;;;;;;;;;;;;;;;;;;5035196;28;7189;-74
2022/12/25 07:42:30;;;;;;;;;;;;;;;;;;5035294;28;7035;-74
2022/12/25 07:48:02;;;;;;;;;;;;;;;;;;5035058;28;6978;-74
2022/12/25 07:50:27;;;;;;;;;;;;;;;;;;5035294;28;6939;-74
2022/12/25 07:52:54;;;;;;;;;;;;;;;;;;5035278;28;7128;-74
2022/12/25 07:58:35;;;;;;;;;;;;;;;;;;5035000;28;6690;-75
2022/12/25 08:01:03;;;;;;;;;;;;;;;;;;5034732;28;7888;-75
2022/12/25 08:03:28;;;;;;;;;;;;;;;;;;5079963;22;7035;-75
2022/12/25 08:05:54;;;;;;;;;;;;;;;;;;5073147;22;8696;-75
2022/12/25 08:08:19;;;;;;;;;;;;;;;;;;4933175;29;8887;-75
2022/12/25 08:10:46;;;;;;;;;;;;;;;;;;4934531;29;7084;-74
2022/12/25 08:13:11;;;;;;;;;;;;;;;;;;4934988;29;7480;-75
2022/12/25 08:15:39;;;;;;;;;;;;;;;;;;4934165;29;7063;-75
2022/12/25 08:18:05;;;;;;;;;;;;;;;;;;4934953;29;7056;-75
2022/12/25 08:20:30;;;;;;;;;;;;;;;;;;4918237;28;7403;-75
2022/12/25 08:22:56;;;;;;;;;;;;;;;;;;4915983;29;7264;-73
2022/12/25 08:28:24;;;;;;;;;;;;;;;;;;4896736;29;6972;-74
2022/12/25 08:30:50;;;;;;;;;;;;;;;;;;4986869;28;7005;-74
2022/12/25 08:33:15;;;;;;;;;;;;;;;;;;5015006;28;7171;-74
2022/12/25 08:35:48;;;;;;;;;;;;;;;;;;5014580;28;6942;-74
2022/12/25 08:38:14;;;;;;;;;;;;;;;;;;5014917;28;7420;-74
2022/12/25 08:40:48;;;;;;;;;;;;;;;;;;4969184;28;7257;-74
2022/12/25 08:43:14;;;;;;;;;;;;;;;;;;4896840;29;6931;-74
2022/12/25 08:45:39;;;;;;;;;;;;;;;;;;4896527;29;6983;-74
2022/12/25 08:48:05;;;;;;;;;;;;;;;;;;4910970;29;7057;-74
2022/12/25 08:50:30;;;;;;;;;;;;;;;;;;4915340;29;7018;-74
2022/12/25 08:53:20;;;;;;;;;;;;;;;;;;4919524;29;7050;-74
2022/12/25 08:55:45;;;;;;;;;;;;;;;;;;4915567;29;7070;-75
2022/12/25 08:58:13;;;;;;;;;;;;;;;;;;4915148;29;7168;-74
2022/12/25 09:01:08;;;;;;;;;;;;;;;;;;4915152;29;7213;-74
2022/12/25 09:03:34;;;;;;;;;;;;;;;;;;4915342;29;6974;-74
2022/12/25 09:06:04;;;;;;;;;;;;;;;;;;4917736;28;7178;-75
2022/12/25 09:11:39;;;;;;;;;;;;;;;;;;4937326;29;7009;-74
2022/12/25 09:14:04;;;;;;;;;;;;;;;;;;4937659;28;7256;-74
2022/12/25 09:16:48;;;;;;;;;;;;;;;;;;4936326;28;7155;-74
2022/12/25 09:19:14;;;;;;;;;;;;;;;;;;4937468;28;7196;-74
2022/12/25 09:21:39;;;;;;;;;;;;;;;;;;4937318;28;7027;-74
2022/12/25 09:24:12;;;;;;;;;;;;;;;;;;4937535;28;6940;-74
2022/12/25 09:26:38;;;;;;;;;;;;;;;;;;4937302;28;7169;-74
2022/12/25 09:29:03;;;;;;;;;;;;;;;;;;4920293;29;8490;-74
2022/12/25 09:34:32;;;;;;;;;;;;;;;;;;4937176;29;6827;-74
2022/12/25 09:40:01;;;;;;;;;;;;;;;;;;4934472;29;7030;-74
2022/12/25 09:42:30;;;;;;;;;;;;;;;;;;4917868;28;7205;-74
2022/12/25 09:45:31;;;;;;;;;;;;;;;;;;4917703;28;6947;-74
2022/12/25 09:47:57;;;;;;;;;;;;;;;;;;4918050;29;7253;-74
2022/12/25 09:53:44;;;;;;;;;;;;;;;;;;4917750;29;6985;-74
2022/12/25 09:56:13;;;;;;;;;;;;;;;;;;4918111;29;7196;-74
2022/12/25 09:58:52;;;;;;;;;;;;;;;;;;4918125;28;7155;-75
2022/12/25 10:01:40;;;;;;;;;;;;;;;;;;4917900;29;7046;-75
2022/12/25 10:07:29;;;;;;;;;;;;;;;;;;4917773;28;6798;-75
2022/12/25 10:12:59;;;;;;;;;;;;;;;;;;4918195;29;6807;-73
2022/12/25 10:15:27;;;;;;;;;;;;;;;;;;4917706;29;7170;-73
2022/12/25 10:18:04;;;;;;;;;;;;;;;;;;4917012;29;7272;-74
2022/12/25 10:21:08;;;;;;;;;;;;;;;;;;4917424;29;7155;-74
2022/12/25 10:24:02;;;;;;;;;;;;;;;;;;4917502;29;6983;-74
2022/12/25 10:26:30;;;;;;;;;;;;;;;;;;4917935;29;7069;-74
2022/12/25 10:29:03;;;;;;;;;;;;;;;;;;4917589;28;6944;-74
2022/12/25 10:34:40;;;;;;;;;;;;;;;;;;4917451;29;7027;-74
2022/12/25 10:37:16;;;;;;;;;;;;;;;;;;4917437;28;7197;-74
2022/12/25 10:39:42;;;;;;;;;;;;;;;;;;4917277;28;6824;-73
2022/12/25 10:45:11;;;;;;;;;;;;;;;;;;4917236;29;6706;-74
2022/12/25 10:56:16;;;;;;;;;;;;;;;;;;5062122;23;6925;-75
2022/12/25 10:58:42;;;;;;;;;;;;;;;;;;5015486;28;8452;-75
2022/12/25 11:01:09;;;;;;;;;;;;;;;;;;5016432;28;7388;-75
2022/12/25 11:03:37;;;;;;;;;;;;;;;;;;5016273;28;7138;-75
2022/12/25 11:06:03;;;;;;;;;;;;;;;;;;5015795;28;7075;-75
2022/12/25 11:11:32;;;;;;;;;;;;;;;;;;5016015;28;6932;-75
2022/12/25 11:14:01;;;;;;;;;;;;;;;;;;5016685;28;7349;-75
2022/12/25 11:16:37;;;;;;;;;;;;;;;;;;5016134;28;7291;-75
2022/12/25 11:19:27;;;;;;;;;;;;;;;;;;5016600;28;7065;-75
2022/12/25 11:21:58;;;;;;;;;;;;;;;;;;5015775;28;6990;-75
2022/12/25 11:24:28;;;;;;;;;;;;;;;;;;5015922;28;7197;-75
2022/12/25 11:30:05;;;;;;;;;;;;;;;;;;5014976;28;6685;-75
2022/12/25 11:32:42;;;;;;;;;;;;;;;;;;4997996;28;7268;-75
2022/12/25 11:35:17;;;;;;;;;;;;;;;;;;4998012;28;8453;-75
2022/12/25 11:37:50;;;;;;;;;;;;;;;;;;5015747;28;6987;-75
2022/12/25 11:40:34;;;;;;;;;;;;;;;;;;5016931;28;6964;-75
2022/12/25 11:43:14;;;;;;;;;;;;;;;;;;5035294;28;7295;-75
2022/12/25 11:46:17;;;;;;;;;;;;;;;;;;5035390;28;7222;-75
2022/12/25 11:48:55;;;;;;;;;;;;;;;;;;5036164;28;7212;-75
2022/12/25 11:51:24;;;;;;;;;;;;;;;;;;5031730;28;7291;-75
2022/12/25 11:54:03;;;;;;;;;;;;;;;;;;5035162;28;6933;-75
2022/12/25 11:56:29;;;;;;;;;;;;;;;;;;5013410;28;7144;-75
2022/12/25 11:58:55;;;;;;;;;;;;;;;;;;4995717;28;7130;-75
2022/12/25 12:01:32;;;;;;;;;;;;;;;;;;4995671;28;6929;-75
2022/12/25 12:04:04;;;;;;;;;;;;;;;;;;4995719;28;7495;-75
2022/12/25 12:06:33;;;;;;;;;;;;;;;;;;4995837;28;7168;-75
2022/12/25 12:12:23;;;;;;;;;;;;;;;;;;4995905;28;6815;-74
2022/12/25 12:15:07;;;;;;;;;;;;;;;;;;4995793;28;7456;-74
2022/12/25 12:17:33;;;;;;;;;;;;;;;;;;4995357;28;6814;-74
2022/12/25 12:20:09;;;;;;;;;;;;;;;;;;4995385;28;7245;-74
2022/12/25 12:22:35;;;;;;;;;;;;;;;;;;4995651;28;7050;-74
2022/12/25 12:25:05;;;;;;;;;;;;;;;;;;4997400;28;7202;-74
2022/12/25 12:30:34;;;;;;;;;;;;;;;;;;4995089;28;6685;-74
2022/12/25 12:36:14;;;;;;;;;;;;;;;;;;4995086;28;6929;-74
2022/12/25 12:38:42;;;;;;;;;;;;;;;;;;4995398;28;7016;-74
2022/12/25 12:41:23;;;;;;;;;;;;;;;;;;5011938;28;7126;-74
2022/12/25 12:43:55;;;;;;;;;;;;;;;;;;5018709;28;7298;-74
2022/12/25 12:46:26;;;;;;;;;;;;;;;;;;5018825;28;7188;-74
2022/12/25 12:55:15;;;;;;;;;;;;;;;;;;5026753;28;6976;-74
2022/12/25 12:57:41;;;;;;;;;;;;;;;;;;5038418;28;6880;-74
2022/12/25 13:03:19;;;;;;;;;;;;;;;;;;5039099;28;6806;-74
2022/12/25 13:09:24;;;;;;;;;;;;;;;;;;5038353;28;6791;-74
2022/12/25 13:11:51;;;;;;;;;;;;;;;;;;5038400;28;7196;-74
2022/12/25 13:14:22;;;;;;;;;;;;;;;;;;5038210;28;7170;-75
2022/12/25 13:19:58;;;;;;;;;;;;;;;;;;5037827;28;7088;-75
2022/12/25 13:22:32;;;;;;;;;;;;;;;;;;5038036;28;7052;-75
2022/12/25 13:27:54;;;;;;;;;;;;;;;;;;5038451;28;6981;-75
2022/12/25 13:30:20;;;;;;;;;;;;;;;;;;5037417;28;7220;-75
2022/12/25 13:32:46;;;;;;;;;;;;;;;;;;5037907;28;7431;-75
2022/12/25 13:35:21;;;;;;;;;;;;;;;;;;5038099;28;7013;-75
2022/12/25 13:37:48;;;;;;;;;;;;;;;;;;5037976;28;6989;-75
2022/12/25 13:40:27;;;;;;;;;;;;;;;;;;5037277;28;7855;-75
2022/12/25 13:42:57;;;;;;;;;;;;;;;;;;5037744;28;7889;-75
2022/12/25 13:45:26;;;;;;;;;;;;;;;;;;5037913;28;7060;-75
2022/12/25 13:47:52;;;;;;;;;;;;;;;;;;5037489;28;8238;-75
2022/12/25 13:50:29;;;;;;;;;;;;;;;;;;5037421;28;6850;-75
2022/12/25 13:53:18;;;;;;;;;;;;;;;;;;5036691;28;7134;-75
2022/12/25 13:55:58;;;;;;;;;;;;;;;;;;5037502;28;7213;-75
2022/12/25 13:58:29;;;;;;;;;;;;;;;;;;5037534;28;7062;-75
2022/12/25 14:00:57;;;;;;;;;;;;;;;;;;5037000;28;6970;-75
2022/12/25 14:03:34;;;;;;;;;;;;;;;;;;5037161;28;7102;-75
2022/12/25 14:06:02;;;;;;;;;;;;;;;;;;5035878;28;8420;-75
2022/12/25 14:11:22;;;;;;;;;;;;;;;;;;5037988;28;7127;-75
2022/12/25 14:13:51;;;;;;;;;;;;;;;;;;5036552;28;7208;-75
2022/12/25 14:16:42;;;;;;;;;;;;;;;;;;5037312;28;7068;-75
2022/12/25 14:22:10;;;;;;;;;;;;;;;;;;5037047;28;6821;-75
2022/12/25 14:24:38;;;;;;;;;;;;;;;;;;5036580;28;7189;-75
2022/12/25 14:27:16;;;;;;;;;;;;;;;;;;5036080;28;7205;-75
2022/12/25 14:32:42;;;;;;;;;;;;;;;;;;5036681;28;7029;-75
2022/12/25 14:38:26;;;;;;;;;;;;;;;;;;5035097;28;7128;-75
2022/12/25 14:41:06;;;;;;;;;;;;;;;;;;5016947;28;7436;-75
2022/12/25 14:43:34;;;;;;;;;;;;;;;;;;5016737;28;7626;-75
2022/12/25 14:46:22;;;;;;;;;;;;;;;;;;5016619;28;7410;-75
2022/12/25 14:49:09;;;;;;;;;;;;;;;;;;5016570;28;7191;-75
2022/12/25 14:51:37;;;;;;;;;;;;;;;;;;5016246;28;7158;-75
2022/12/25 14:57:19;;;;;;;;;;;;;;;;;;5016674;28;6727;-75
2022/12/25 14:59:53;;;;;;;;;;;;;;;;;;5016394;28;7192;-75
2022/12/25 15:02:19;;;;;;;;;;;;;;;;;;5016545;28;7358;-75
2022/12/25 15:04:52;;;;;;;;;;;;;;;;;;5015855;28;6992;-75
2022/12/25 15:07:26;;;;;;;;;;;;;;;;;;5016263;28;7409;-75
2022/12/25 15:09:58;;;;;;;;;;;;;;;;;;5017033;28;7146;-75
2022/12/25 15:12:23;;;;;;;;;;;;;;;;;;5015968;28;7250;-75
2022/12/25 15:14:49;;;;;;;;;;;;;;;;;;5016196;28;7321;-75
2022/12/25 15:17:34;;;;;;;;;;;;;;;;;;5016994;28;7095;-75
2022/12/25 15:20:02;;;;;;;;;;;;;;;;;;5016070;28;7218;-75
2022/12/25 15:22:28;;;;;;;;;;;;;;;;;;5015941;28;7162;-75
2022/12/25 15:24:59;;;;;;;;;;;;;;;;;;5015916;28;6958;-75
2022/12/25 15:27:25;;;;;;;;;;;;;;;;;;5017094;28;7125;-75
2022/12/25 15:29:50;;;;;;;;;;;;;;;;;;5035514;28;6989;-75
2022/12/25 15:32:18;;;;;;;;;;;;;;;;;;5035325;28;7217;-75
2022/12/25 15:34:45;;;;;;;;;;;;;;;;;;5035651;28;7007;-75
2022/12/25 15:37:12;;;;;;;;;;;;;;;;;;5035025;28;7183;-75
2022/12/25 15:39:50;;;;;;;;;;;;;;;;;;5035436;28;7138;-75
2022/12/25 15:42:18;;;;;;;;;;;;;;;;;;5035444;28;7228;-75
2022/12/25 15:44:45;;;;;;;;;;;;;;;;;;5035248;28;7233;-75
2022/12/25 15:47:12;;;;;;;;;;;;;;;;;;5036032;28;7421;-75
2022/12/25 15:49:39;;;;;;;;;;;;;;;;;;5035215;28;7056;-75
2022/12/25 15:58:29;;;;;;;;;;;;;;;;;;5035033;28;7540;-75
2022/12/25 16:00:54;;;;;;;;;;;;;;;;;;5035253;28;7087;-74
2022/12/25 16:03:20;;;;;;;;;;;;;;;;;;5035223;28;7586;-74
2022/12/25 16:05:45;;;;;;;;;;;;;;;;;;5034925;28;7043;-74
2022/12/25 16:08:42;;;;;;;;;;;;;;;;;;5035078;28;7033;-74
2022/12/25 16:11:09;;;;;;;;;;;;;;;;;;5034810;28;7393;-74
2022/12/25 16:13:46;;;;;;;;;;;;;;;;;;5034752;28;6996;-74
2022/12/25 16:16:12;;;;;;;;;;;;;;;;;;5034254;28;7012;-74
2022/12/25 16:18:37;;;;;;;;;;;;;;;;;;5034935;28;6913;-74
2022/12/25 16:24:04;;;;;;;;;;;;;;;;;;5035125;28;6787;-74
2022/12/25 16:26:32;;;;;;;;;;;;;;;;;;5036130;28;7174;-74
2022/12/25 16:29:04;;;;;;;;;;;;;;;;;;5027541;28;7143;-74
2022/12/25 16:31:29;;;;;;;;;;;;;;;;;;5034737;28;7525;-74
2022/12/25 16:33:55;;;;;;;;;;;;;;;;;;5035321;28;7461;-74
2022/12/25 16:36:43;;;;;;;;;;;;;;;;;;5034717;28;7011;-74
2022/12/25 16:39:09;;;;;;;;;;;;;;;;;;5034665;28;6988;-74
2022/12/25 16:41:34;;;;;;;;;;;;;;;;;;5034746;28;7046;-74
2022/12/25 16:44:08;;;;;;;;;;;;;;;;;;5034325;28;6951;-74
2022/12/25 16:46:48;;;;;;;;;;;;;;;;;;5034727;28;7444;-74
2022/12/25 16:49:14;;;;;;;;;;;;;;;;;;5034646;28;7260;-74
2022/12/25 16:51:39;;;;;;;;;;;;;;;;;;5034507;28;6963;-74
2022/12/25 16:54:06;;;;;;;;;;;;;;;;;;5034229;28;7001;-74
2022/12/25 16:56:37;;;;;;;;;;;;;;;;;;5034543;28;7028;-74
2022/12/25 16:59:03;;;;;;;;;;;;;;;;;;5034493;28;7070;-74
2022/12/25 17:01:29;;;;;;;;;;;;;;;;;;5034333;28;7233;-74
2022/12/25 17:03:57;;;;;;;;;;;;;;;;;;5034553;28;7156;-74
2022/12/25 17:06:24;;;;;;;;;;;;;;;;;;5030667;28;7069;-76
2022/12/25 17:09:23;;;;;;;;;;;;;;;;;;5025764;28;7036;-76
2022/12/25 17:11:49;;;;;;;;;;;;;;;;;;5034725;28;7243;-76
2022/12/25 17:14:14;;;;;;;;;;;;;;;;;;5034341;28;7192;-76
2022/12/25 17:16:40;;;;;;;;;;;;;;;;;;5035564;28;7292;-76
2022/12/25 17:19:14;;;;;;;;;;;;;;;;;;5034160;28;7061;-76
2022/12/25 17:21:39;;;;;;;;;;;;;;;;;;5033324;28;7207;-76
2022/12/25 17:27:08;;;;;;;;;;;;;;;;;;5035864;28;6684;-76
2022/12/25 17:29:35;;;;;;;;;;;;;;;;;;5037643;28;7095;-76
2022/12/25 17:32:01;;;;;;;;;;;;;;;;;;5037878;28;7004;-76
2022/12/25 17:34:29;;;;;;;;;;;;;;;;;;5037652;28;7010;-76
2022/12/25 17:36:55;;;;;;;;;;;;;;;;;;5037918;28;7118;-76
2022/12/25 17:39:42;;;;;;;;;;;;;;;;;;5037716;28;7634;-76
2022/12/25 17:42:35;;;;;;;;;;;;;;;;;;5038892;28;7527;-76
2022/12/25 17:45:01;;;;;;;;;;;;;;;;;;5037644;28;7208;-76
2022/12/25 17:53:22;;;;;;;;;;;;;;;;;;5037654;28;6980;-76
2022/12/25 17:55:48;;;;;;;;;;;;;;;;;;5036119;28;7178;-76
2022/12/25 17:58:16;;;;;;;;;;;;;;;;;;5037488;28;7365;-76
2022/12/25 18:00:41;;;;;;;;;;;;;;;;;;5037143;28;6938;-76
2022/12/25 18:03:07;;;;;;;;;;;;;;;;;;5037493;28;7366;-76
2022/12/25 18:05:34;;;;;;;;;;;;;;;;;;5037868;28;7159;-76
2022/12/25 18:11:04;;;;;;;;;;;;;;;;;;5036970;28;7093;-76
2022/12/25 18:13:31;;;;;;;;;;;;;;;;;;5037013;28;7150;-76
2022/12/25 18:16:25;;;;;;;;;;;;;;;;;;5037418;28;6961;-76
2022/12/25 18:18:51;;;;;;;;;;;;;;;;;;5037017;28;7096;-76
2022/12/25 18:21:17;;;;;;;;;;;;;;;;;;5036908;28;7136;-76
2022/12/25 18:23:55;;;;;;;;;;;;;;;;;;5037821;28;6897;-76
2022/12/25 18:26:20;;;;;;;;;;;;;;;;;;5036816;28;7216;-76
2022/12/25 18:29:01;;;;;;;;;;;;;;;;;;5036484;28;6823;-76
2022/12/25 18:31:30;;;;;;;;;;;;;;;;;;5036693;28;7091;-76
2022/12/25 18:33:58;;;;;;;;;;;;;;;;;;5036563;28;6944;-76
2022/12/25 18:36:26;;;;;;;;;;;;;;;;;;5018601;28;9159;-76
2022/12/25 18:38:52;;;;;;;;;;;;;;;;;;5034872;28;8483;-76
2022/12/25 18:41:20;;;;;;;;;;;;;;;;;;5036275;28;6985;-76
2022/12/25 18:43:45;;;;;;;;;;;;;;;;;;5036883;28;6970;-76
2022/12/25 18:46:25;;;;;;;;;;;;;;;;;;5036637;28;7078;-76
2022/12/25 18:48:51;;;;;;;;;;;;;;;;;;5035306;28;7120;-76
2022/12/25 18:51:17;;;;;;;;;;;;;;;;;;5036359;28;7150;-76
2022/12/25 18:54:04;;;;;;;;;;;;;;;;;;5037023;28;7226;-76
2022/12/25 18:56:29;;;;;;;;;;;;;;;;;;5036766;28;7079;-76
2022/12/25 18:58:57;;;;;;;;;;;;;;;;;;5036533;28;7213;-76
2022/12/25 19:01:37;;;;;;;;;;;;;;;;;;5036540;28;7275;-76
2022/12/25 19:04:04;;;;;;;;;;;;;;;;;;5036244;28;7135;-76
2022/12/25 19:06:32;;;;;;;;;;;;;;;;;;5035775;28;6832;-76
2022/12/25 19:09:10;;;;;;;;;;;;;;;;;;5036031;28;6962;-76
2022/12/25 19:11:36;;;;;;;;;;;;;;;;;;5035870;28;7284;-76
2022/12/25 19:14:02;;;;;;;;;;;;;;;;;;5036043;28;7178;-76
2022/12/25 19:16:27;;;;;;;;;;;;;;;;;;5035946;28;7137;-76
2022/12/25 19:19:23;;;;;;;;;;;;;;;;;;5035421;28;7265;-76
2022/12/25 19:21:52;;;;;;;;;;;;;;;;;;5035741;28;7102;-76
2022/12/25 19:24:24;;;;;;;;;;;;;;;;;;5035635;28;7438;-76
2022/12/25 19:29:52;;;;;;;;;;;;;;;;;;5035685;28;6914;-76
2022/12/25 19:32:28;;;;;;;;;;;;;;;;;;5035879;28;7027;-76
2022/12/25 19:34:54;;;;;;;;;;;;;;;;;;5035387;28;7161;-76
2022/12/25 19:40:35;;;;;;;;;;;;;;;;;;5035193;28;6683;-76
2022/12/25 19:43:00;;;;;;;;;;;;;;;;;;5035735;28;7293;-76
2022/12/25 19:48:33;;;;;;;;;;;;;;;;;;5033696;28;6751;-76
2022/12/25 19:50:58;;;;;;;;;;;;;;;;;;5034036;28;7133;-76
2022/12/25 19:56:14;;;;;;;;;;;;;;;;;;5033317;28;7120;-76
2022/12/25 19:58:40;;;;;;;;;;;;;;;;;;5034747;28;6941;-76
2022/12/25 20:01:16;;;;;;;;;;;;;;;;;;5034915;28;7122;-76
2022/12/25 20:03:44;;;;;;;;;;;;;;;;;;5033394;28;7087;-76
2022/12/25 20:06:24;;;;;;;;;;;;;;;;;;5035602;28;7125;-76
2022/12/25 20:08:54;;;;;;;;;;;;;;;;;;5018662;28;7177;-76
2022/12/25 20:14:50;;;;;;;;;;;;;;;;;;5015263;28;6691;-76
2022/12/25 20:17:16;;;;;;;;;;;;;;;;;;5015793;28;8018;-76
2022/12/25 20:19:41;;;;;;;;;;;;;;;;;;5024107;28;6923;-76
2022/12/25 20:25:07;;;;;;;;;;;;;;;;;;5030454;28;8712;-76
2022/12/25 20:30:42;;;;;;;;;;;;;;;;;;5034484;28;7027;-76
2022/12/25 20:33:07;;;;;;;;;;;;;;;;;;5034755;28;7117;-76
2022/12/25 20:35:33;;;;;;;;;;;;;;;;;;5034749;28;6989;-76
2022/12/25 20:37:59;;;;;;;;;;;;;;;;;;5034377;28;7037;-77
2022/12/25 20:40:44;;;;;;;;;;;;;;;;;;5034297;28;7357;-77
2022/12/25 20:43:10;;;;;;;;;;;;;;;;;;5031917;28;8423;-76
2022/12/25 20:46:03;;;;;;;;;;;;;;;;;;5033793;28;7304;-76
2022/12/25 20:48:29;;;;;;;;;;;;;;;;;;5031502;28;7113;-76
2022/12/25 20:53:57;;;;;;;;;;;;;;;;;;5030872;28;7112;-76
2022/12/25 20:56:24;;;;;;;;;;;;;;;;;;5032956;28;7199;-76
2022/12/25 20:58:54;;;;;;;;;;;;;;;;;;5034457;28;7347;-76
2022/12/25 21:01:31;;;;;;;;;;;;;;;;;;5034953;28;7400;-76
2022/12/25 21:03:57;;;;;;;;;;;;;;;;;;5038354;28;7146;-76
2022/12/25 21:06:23;;;;;;;;;;;;;;;;;;5037985;28;7251;-76
2022/12/25 21:08:49;;;;;;;;;;;;;;;;;;5038408;28;7056;-76
2022/12/25 21:11:15;;;;;;;;;;;;;;;;;;5037634;28;7116;-76
2022/12/25 21:13:42;;;;;;;;;;;;;;;;;;5037537;28;7161;-76
2022/12/25 21:16:10;;;;;;;;;;;;;;;;;;5037477;28;6854;-76
2022/12/25 21:18:36;;;;;;;;;;;;;;;;;;5035066;28;7053;-76
2022/12/25 21:21:05;;;;;;;;;;;;;;;;;;5037394;28;7779;-76
2022/12/25 21:23:47;;;;;;;;;;;;;;;;;;5037733;28;7198;-76
2022/12/25 21:26:17;;;;;;;;;;;;;;;;;;5037939;28;7271;-76
2022/12/25 21:28:46;;;;;;;;;;;;;;;;;;5020584;28;8472;-76
2022/12/25 21:31:11;;;;;;;;;;;;;;;;;;5037949;28;6986;-76
2022/12/25 21:33:51;;;;;;;;;;;;;;;;;;5037867;28;7184;-76
2022/12/25 21:36:20;;;;;;;;;;;;;;;;;;5037721;28;7494;-76
2022/12/25 21:39:15;;;;;;;;;;;;;;;;;;5038366;28;7148;-76
2022/12/25 21:41:41;;;;;;;;;;;;;;;;;;5017971;28;7353;-76
2022/12/25 21:44:07;;;;;;;;;;;;;;;;;;5036950;28;7168;-76
2022/12/25 21:46:50;;;;;;;;;;;;;;;;;;5037182;28;7065;-76
2022/12/25 21:52:05;;;;;;;;;;;;;;;;;;5037233;28;6999;-76
2022/12/25 21:52:07;;;;;;;;;;;;;;;;;;5036887;28;7098;-76
2022/12/25 21:54:33;;;;;;;;;;;;;;;;;;5037438;28;7266;-76
2022/12/25 21:56:58;;;;;;;;;;;;;;;;;;5037039;28;6938;-76
2022/12/25 21:59:24;;;;;;;;;;;;;;;;;;5037210;28;7095;-76
2022/12/25 22:01:50;;;;;;;;;;;;;;;;;;5037815;28;7122;-76
2022/12/25 22:04:37;;;;;;;;;;;;;;;;;;5037344;28;6974;-76
2022/12/25 22:07:16;;;;;;;;;;;;;;;;;;5037166;28;7230;-76
2022/12/25 22:09:42;;;;;;;;;;;;;;;;;;5037211;28;7065;-76
2022/12/25 22:15:11;;;;;;;;;;;;;;;;;;5036650;28;6708;-76
2022/12/25 22:20:30;;;;;;;;;;;;;;;;;;5037151;28;6805;-76
2022/12/25 22:22:56;;;;;;;;;;;;;;;;;;5036973;28;7156;-76
2022/12/25 22:25:23;;;;;;;;;;;;;;;;;;5036970;28;7008;-76
2022/12/25 22:27:49;;;;;;;;;;;;;;;;;;5036980;28;7200;-76